Time;durP1;ratioP1;P1;durP2;ratioP2;P2;SDS_P1;SDS_P2;PMS_P1;PMS_P2;Temp;Humidity;BMP_temperature;BMP_pressure;BME280_temperature;BME280_humidity;BME280_pressure;Samples;Min_cycle;Max_cycle;Signal;HPM_P1;HPM_P2
2023/06/14 00:00:40;;;;;;;3.73;3.10;;;14.30;91.50;;;;;;4986311;28;20223;-88
2023/06/14 00:03:09;;;;;;;4.40;3.87;;;14.20;92.30;;;;;;4987025;28;20211;-87
2023/06/14 00:05:40;;;;;;;5.73;3.80;;;14.20;92.30;;;;;;4988572;28;20848;-88
2023/06/14 00:08:07;;;;;;;4.67;3.33;;;14.10;92.40;;;;;;4963688;28;20541;-86
2023/06/14 00:10:35;;;;;;;5.05;3.30;;;14.00;93.00;;;;;;4990049;28;21135;-88
2023/06/14 00:13:01;;;;;;;4.47;3.25;;;14.00;93.50;;;;;;4987722;28;20180;-86
2023/06/14 00:15:28;;;;;;;6.70;4.10;;;;;;;;;;4986985;28;20191;-85
2023/06/14 00:17:54;;;;;;;4.03;3.53;;;13.90;93.80;;;;;;4980911;28;20202;-85
2023/06/14 00:20:20;;;;;;;3.80;3.25;;;13.90;94.50;;;;;;4971304;28;20250;-88
2023/06/14 00:22:46;;;;;;;5.77;3.80;;;13.80;94.90;;;;;;4989006;28;20190;-87
2023/06/14 00:25:11;;;;;;;4.77;3.87;;;13.70;95.40;;;;;;4986649;28;20462;-88
2023/06/14 00:27:37;;;;;;;6.67;3.67;;;13.70;96.20;;;;;;4988721;28;20728;-87
2023/06/14 00:30:03;;;;;;;5.60;3.40;;;13.70;96.50;;;;;;4989965;28;20206;-86
2023/06/14 00:32:29;;;;;;;4.07;2.50;;;13.60;96.90;;;;;;4990489;28;20191;-87
2023/06/14 00:34:54;;;;;;;4.90;3.40;;;13.50;98.20;;;;;;4991514;28;20438;-86
2023/06/14 00:37:20;;;;;;;4.37;2.70;;;;;;;;;;4974929;28;20183;-88
2023/06/14 00:39:46;;;;;;;4.20;3.33;;;13.40;99.80;;;;;;4988551;28;20247;-86
2023/06/14 00:42:22;;;;;;;4.77;3.73;;;13.30;99.90;;;;;;4963386;28;20596;-87
2023/06/14 00:44:47;;;;;;;6.57;4.35;;;13.20;99.90;;;;;;4971689;28;20206;-87
2023/06/14 00:47:13;;;;;;;5.33;3.30;;;;;;;;;;4995628;28;20237;-87
2023/06/14 00:49:39;;;;;;;4.10;3.70;;;;;;;;;;4988978;28;20237;-88
2023/06/14 00:52:06;;;;;;;5.47;3.20;;;13.10;99.90;;;;;;4991816;28;20446;-87
2023/06/14 00:54:32;;;;;;;4.50;3.30;;;;;;;;;;4989226;28;20179;-86
2023/06/14 00:56:57;;;;;;;5.43;3.10;;;13.10;99.90;;;;;;4988867;28;20232;-86
2023/06/14 00:59:23;;;;;;;6.60;4.10;;;13.00;99.90;;;;;;4986505;28;20449;-86
2023/06/14 01:01:49;;;;;;;4.73;4.07;;;13.00;99.90;;;;;;4966185;28;20656;-86
2023/06/14 01:04:14;;;;;;;3.43;3.17;;;13.00;99.90;;;;;;4988370;28;20293;-86
2023/06/14 01:06:44;;;;;;;4.43;3.43;;;13.00;99.90;;;;;;4968780;28;20183;-87
2023/06/14 01:09:20;;;;;;;6.43;3.35;;;13.00;99.90;;;;;;4988065;28;20186;-88
2023/06/14 01:12:01;;;;;;;3.75;3.45;;;12.90;99.90;;;;;;4983628;28;20206;-87
2023/06/14 01:14:28;;;;;;;5.90;3.38;;;12.90;99.90;;;;;;4961444;28;20190;-88
2023/06/14 01:16:57;;;;;;;7.55;3.80;;;12.90;99.90;;;;;;4969778;28;20191;-88
2023/06/14 01:19:25;;;;;;;4.13;3.60;;;12.80;99.90;;;;;;4981622;28;20230;-85
2023/06/14 01:21:51;;;;;;;7.85;3.72;;;12.70;99.90;;;;;;4964780;28;20187;-86
2023/06/14 01:24:19;;;;;;;6.07;3.70;;;12.50;99.90;;;;;;4982193;28;20198;-87
2023/06/14 01:26:46;;;;;;;3.28;3.00;;;12.40;99.90;;;;;;4982656;28;20214;-85
2023/06/14 01:29:17;;;;;;;5.03;3.80;;;12.40;99.90;;;;;;4971706;28;20675;-87
2023/06/14 01:31:43;;;;;;;6.05;3.65;;;;;;;;;;4985899;28;20218;-87
2023/06/14 01:34:09;;;;;;;4.82;3.83;;;12.40;99.90;;;;;;4982829;28;20265;-86
2023/06/14 01:36:39;;;;;;;6.63;4.10;;;12.40;99.90;;;;;;4983485;28;22060;-87
2023/06/14 01:39:05;;;;;;;5.15;4.40;;;12.40;99.90;;;;;;4988539;28;20175;-86
2023/06/14 01:41:32;;;;;;;4.75;3.75;;;;;;;;;;4986069;28;20706;-85
2023/06/14 01:43:58;;;;;;;4.43;3.40;;;12.40;99.90;;;;;;4967197;28;20352;-87
2023/06/14 01:46:24;;;;;;;6.00;3.67;;;12.40;99.90;;;;;;4961271;28;20279;-86
2023/06/14 01:48:50;;;;;;;10.15;4.35;;;12.30;99.90;;;;;;4969618;28;20180;-87
2023/06/14 01:51:15;;;;;;;7.13;4.67;;;12.30;99.90;;;;;;4967126;28;20222;-87
2023/06/14 01:53:41;;;;;;;6.07;3.70;;;12.40;99.90;;;;;;4970734;28;20199;-87
2023/06/14 01:56:07;;;;;;;6.60;3.50;;;12.30;99.90;;;;;;4982264;28;20188;-86
2023/06/14 01:58:32;;;;;;;3.43;3.13;;;12.20;99.90;;;;;;4982532;28;20179;-85
2023/06/14 02:01:00;;;;;;;4.40;3.30;;;12.20;99.90;;;;;;4974735;28;20211;-85
2023/06/14 02:03:26;;;;;;;6.68;2.97;;;12.20;99.90;;;;;;4992718;28;20199;-87
2023/06/14 02:05:52;;;;;;;5.80;3.37;;;12.20;99.90;;;;;;4967005;28;20195;-87
2023/06/14 02:08:17;;;;;;;4.00;3.10;;;12.30;99.90;;;;;;4986827;28;20211;-87
2023/06/14 02:10:43;;;;;;;4.60;3.20;;;11.90;99.90;;;;;;4985282;28;20195;-88
2023/06/14 02:13:09;;;;;;;6.03;3.97;;;;;;;;;;4987603;28;20183;-85
2023/06/14 02:15:35;;;;;;;5.00;3.77;;;12.20;99.90;;;;;;4970595;28;20198;-87
2023/06/14 02:18:02;;;;;;;4.00;3.47;;;12.20;99.90;;;;;;4988445;28;20438;-88
2023/06/14 02:20:27;;;;;;;4.57;4.10;;;12.20;99.90;;;;;;4987486;28;20458;-88
2023/06/14 02:22:53;;;;;;;4.97;3.93;;;;;;;;;;4989371;28;20176;-87
2023/06/14 02:25:19;;;;;;;5.13;4.20;;;12.10;99.90;;;;;;4985809;28;20466;-86
2023/06/14 02:27:45;;;;;;;8.80;3.57;;;;;;;;;;4985101;28;20215;-86
2023/06/14 02:30:11;;;;;;;4.30;3.33;;;12.10;99.90;;;;;;4982525;28;20565;-87
2023/06/14 02:32:37;;;;;;;4.78;3.20;;;12.10;99.90;;;;;;4986246;28;20473;-88
2023/06/14 02:35:03;;;;;;;4.87;3.47;;;12.10;99.90;;;;;;4984088;28;20281;-88
2023/06/14 02:37:29;;;;;;;5.00;3.13;;;;;;;;;;4987632;28;20187;-89
2023/06/14 02:39:56;;;;;;;5.65;3.50;;;12.00;99.90;;;;;;4982133;28;21452;-86
2023/06/14 02:42:22;;;;;;;3.60;2.75;;;;;;;;;;4983435;28;20183;-87
2023/06/14 02:44:50;;;;;;;3.27;2.97;;;12.00;99.90;;;;;;4986895;28;20222;-87
2023/06/14 02:47:17;;;;;;;7.47;3.97;;;12.00;99.90;;;;;;4983584;28;20438;-87
2023/06/14 02:49:43;;;;;;;4.75;3.50;;;12.00;99.90;;;;;;4987280;28;20179;-87
2023/06/14 02:52:08;;;;;;;3.60;3.10;;;12.00;99.90;;;;;;4972131;28;20191;-86
2023/06/14 02:54:34;;;;;;;6.27;3.23;;;11.90;99.90;;;;;;4973962;28;20214;-86
2023/06/14 02:57:00;;;;;;;3.93;3.53;;;11.80;99.90;;;;;;4984030;28;20438;-88
2023/06/14 02:59:26;;;;;;;4.90;3.77;;;11.80;99.90;;;;;;4966000;28;20218;-88
2023/06/14 03:01:51;;;;;;;5.63;4.07;;;11.80;99.90;;;;;;4966994;28;20846;-88
2023/06/14 03:04:17;;;;;;;4.93;4.00;;;11.80;99.90;;;;;;4983891;28;20219;-88
2023/06/14 03:06:44;;;;;;;7.60;4.60;;;11.70;99.90;;;;;;4968166;28;20206;-87
2023/06/14 03:09:09;;;;;;;4.90;3.65;;;11.80;99.90;;;;;;4983897;28;20302;-86
2023/06/14 03:11:35;;;;;;;4.60;3.13;;;11.80;99.90;;;;;;4969352;28;20302;-87
2023/06/14 03:14:03;;;;;;;5.28;3.33;;;11.80;99.90;;;;;;4985363;28;20263;-87
2023/06/14 03:16:29;;;;;;;6.32;4.38;;;11.80;99.90;;;;;;4967727;28;20191;-86
2023/06/14 03:18:55;;;;;;;3.88;3.42;;;11.80;99.90;;;;;;4980952;28;20194;-86
2023/06/14 03:21:21;;;;;;;4.93;3.90;;;;;;;;;;4972191;28;20214;-88
2023/06/14 03:23:48;;;;;;;7.32;4.40;;;11.90;99.90;;;;;;4985259;28;20462;-87
2023/06/14 03:26:14;;;;;;;7.32;4.65;;;12.00;99.90;;;;;;4972151;28;20286;-86
2023/06/14 03:28:41;;;;;;;9.27;4.03;;;;;;;;;;4981259;28;20337;-87
2023/06/14 03:31:08;;;;;;;4.00;3.60;;;;;;;;;;4965375;28;20227;-87
2023/06/14 03:33:34;;;;;;;11.07;4.28;;;;;;;;;;4967005;28;20191;-86
2023/06/14 03:36:01;;;;;;;5.93;2.80;;;11.80;99.90;;;;;;4982165;28;20780;-86
2023/06/14 03:38:26;;;;;;;4.63;3.20;;;11.80;99.90;;;;;;4981660;28;20592;-88
2023/06/14 03:40:52;;;;;;;6.37;4.30;;;11.80;99.90;;;;;;4961786;28;20286;-87
2023/06/14 03:43:17;;;;;;;8.30;4.17;;;11.80;99.90;;;;;;4965501;28;20210;-87
2023/06/14 03:45:43;;;;;;;6.00;3.93;;;11.90;99.90;;;;;;4965061;28;20183;-84
2023/06/14 03:48:09;;;;;;;4.77;3.60;;;11.90;99.90;;;;;;4984081;28;20171;-85
2023/06/14 03:50:37;;;;;;;7.43;4.45;;;12.00;99.90;;;;;;4977242;28;20200;-87
2023/06/14 03:53:04;;;;;;;5.75;4.63;;;12.00;99.90;;;;;;4979128;28;20229;-86
2023/06/14 03:55:31;;;;;;;4.47;3.70;;;;;;;;;;4981196;28;20295;-88
2023/06/14 03:57:57;;;;;;;7.35;4.57;;;;;;;;;;4976304;28;20708;-89
2023/06/14 04:00:23;;;;;;;5.00;3.83;;;;;;;;;;4978569;28;20195;-88
2023/06/14 04:02:49;;;;;;;5.35;4.65;;;12.40;99.90;;;;;;4978311;28;20239;-87
2023/06/14 04:05:16;;;;;;;7.83;4.07;;;;;;;;;;4978388;28;20239;-87
2023/06/14 04:07:44;;;;;;;5.57;4.43;;;12.60;99.90;;;;;;4964161;28;20179;-86
2023/06/14 04:10:11;;;;;;;6.45;4.45;;;12.70;99.90;;;;;;4961698;28;20203;-86
2023/06/14 04:12:37;;;;;;;6.30;4.40;;;13.00;99.90;;;;;;4963883;28;20182;-87
2023/06/14 04:15:03;;;;;;;9.10;4.10;;;13.00;99.90;;;;;;4964929;28;20210;-87
2023/06/14 04:17:29;;;;;;;5.63;3.85;;;;;;;;;;4987179;28;20207;-88
2023/06/14 04:19:55;;;;;;;4.93;3.97;;;14.90;99.90;;;;;;4967160;28;20257;-87
2023/06/14 04:22:20;;;;;;;7.80;5.10;;;16.90;99.90;;;;;;4983773;28;20217;-88
2023/06/14 04:24:46;;;;;;;6.40;4.60;;;;;;;;;;4984648;28;20955;-86
2023/06/14 04:27:14;;;;;;;5.60;3.93;;;19.70;99.70;;;;;;4984950;28;20186;-88
2023/06/14 04:29:40;;;;;;;4.57;4.13;;;22.50;93.90;;;;;;4971285;28;20954;-88
2023/06/14 04:32:09;;;;;;;6.70;5.17;;;22.60;93.70;;;;;;4987855;28;20473;-88
2023/06/14 04:34:37;;;;;;;7.60;4.83;;;;;;;;;;4967615;28;20231;-88
2023/06/14 04:37:03;;;;;;;7.13;4.87;;;25.60;74.20;;;;;;4976469;28;20974;-87
2023/06/14 04:39:29;;;;;;;7.37;4.53;;;;;;;;;;4991454;28;20446;-86
2023/06/14 04:41:56;;;;;;;4.93;4.50;;;;;;;;;;4989493;28;20214;-88
2023/06/14 04:44:31;;;;;;;6.50;5.30;;;29.20;52.00;;;;;;4990153;28;20530;-85
2023/06/14 04:46:58;;;;;;;4.93;4.47;;;;;;;;;;4986513;28;20454;-86
2023/06/14 04:49:25;;;;;;;6.57;5.37;;;;;;;;;;4991477;28;20439;-87
2023/06/14 04:51:57;;;;;;;6.30;5.70;;;;;;;;;;4992322;28;20512;-88
2023/06/14 04:54:23;;;;;;;6.10;4.63;;;;;;;;;;4975246;28;20443;-87
2023/06/14 04:56:49;;;;;;;5.90;5.40;;;31.90;43.90;;;;;;4976795;28;20448;-88
2023/06/14 04:59:17;;;;;;;5.83;4.83;;;;;;;;;;4991321;28;20474;-86
2023/06/14 05:01:47;;;;;;;8.93;5.77;;;;;;;;;;4986439;28;20863;-88
2023/06/14 05:04:13;;;;;;;5.50;5.00;;;;;;;;;;4979714;28;20466;-89
2023/06/14 05:06:39;;;;;;;5.37;4.77;;;;;;;;;;4984305;28;20436;-87
2023/06/14 05:09:05;;;;;;;7.00;6.40;;;;;;;;;;4979204;28;20445;-89
2023/06/14 05:11:31;;;;;;;6.17;5.60;;;;;;;;;;4982606;28;20454;-89
2023/06/14 05:13:58;;;;;;;6.07;5.47;;;;;;;;;;4979929;28;20442;-90
2023/06/14 05:16:25;;;;;;;6.03;5.50;;;;;;;;;;4962452;28;20813;-88
2023/06/14 05:18:51;;;;;;;7.63;7.00;;;;;;;;;;4968516;28;20957;-88
2023/06/14 05:21:18;;;;;;;7.23;6.73;;;36.90;34.90;;;;;;4973293;28;20596;-89
2023/06/14 05:23:44;;;;;;;7.50;6.80;;;;;;;;;;4970365;28;20472;-88
2023/06/14 05:26:10;;;;;;;7.70;6.90;;;35.90;34.40;;;;;;4973189;28;20452;-88
2023/06/14 05:28:36;;;;;;;6.87;6.27;;;;;;;;;;4974063;28;20443;-88
2023/06/14 05:31:02;;;;;;;7.40;6.80;;;;;;;;;;4981341;28;22292;-88
2023/06/14 05:33:28;;;;;;;8.10;7.50;;;;;;;;;;4974722;28;20452;-88
2023/06/14 05:35:55;;;;;;;8.00;7.30;;;;;;;;;;4962271;28;20499;-89
2023/06/14 05:38:21;;;;;;;7.03;6.40;;;;;;;;;;4958417;28;20428;-90
2023/06/14 05:40:47;;;;;;;8.03;7.33;;;;;;;;;;4957036;28;20467;-88
2023/06/14 05:43:13;;;;;;;8.30;7.50;;;;;;;;;;4961272;28;20428;-88
2023/06/14 05:45:39;;;;;;;8.50;7.80;;;;;;;;;;4976178;28;20808;-89
2023/06/14 05:48:05;;;;;;;8.50;7.80;;;;;;;;;;4978069;28;20431;-88
2023/06/14 05:50:31;;;;;;;8.90;8.07;;;;;;;;;;4975103;28;20999;-89
2023/06/14 05:52:57;;;;;;;9.00;8.30;;;;;;;;;;4980502;28;20439;-88
2023/06/14 05:55:23;;;;;;;8.40;7.60;;;;;;;;;;4982126;28;20444;-87
2023/06/14 05:57:49;;;;;;;7.60;6.93;;;;;;;;;;4975909;28;20443;-89
2023/06/14 06:00:15;;;;;;;7.33;6.80;;;;;;;;;;4948321;28;21037;-89
2023/06/14 06:02:44;;;;;;;8.00;7.40;;;36.90;31.20;;;;;;4976570;28;20445;-89
2023/06/14 06:05:11;;;;;;;7.93;7.13;;;;;;;;;;4974698;28;20467;-89
2023/06/14 06:07:37;;;;;;;8.03;7.43;;;36.40;32.00;;;;;;4962982;28;20432;-86
2023/06/14 06:10:04;;;;;;;7.33;6.73;;;;;;;;;;4987642;28;20471;-88
2023/06/14 06:12:30;;;;;;;7.77;6.97;;;;;;;;;;4984098;28;20437;-88
2023/06/14 06:14:56;;;;;;;8.00;6.93;;;;;;;;;;4979893;28;20439;-89
2023/06/14 06:17:22;;;;;;;8.50;7.80;;;;;;;;;;4979220;28;20469;-87
2023/06/14 06:19:48;;;;;;;9.80;7.50;;;;;;;;;;4980650;28;20439;-89
2023/06/14 06:22:14;;;;;;;6.93;6.33;;;;;;;;;;4963210;28;20432;-89
2023/06/14 06:24:39;;;;;;;7.80;7.20;;;;;;;;;;4965205;28;20483;-89
2023/06/14 06:27:07;;;;;;;9.37;8.47;;;36.70;32.30;;;;;;4982932;28;20446;-88
2023/06/14 06:29:33;;;;;;;11.07;8.00;;;;;;;;;;4960883;28;20435;-90
2023/06/14 06:31:59;;;;;;;10.53;7.30;;;34.60;32.10;;;;;;4964786;28;20962;-88
2023/06/14 06:34:25;;;;;;;7.10;6.40;;;33.60;33.00;;;;;;4980778;28;20456;-87
2023/06/14 06:36:51;;;;;;;8.40;7.60;;;33.30;34.50;;;;;;4977362;28;20839;-89
2023/06/14 06:39:17;;;;;;;8.17;7.43;;;;;;;;;;4968371;28;20573;-88
2023/06/14 06:41:42;;;;;;;6.20;5.73;;;32.60;35.50;;;;;;4974392;28;20223;-88
2023/06/14 06:44:10;;;;;;;7.77;6.97;;;;;;;;;;4966454;28;20458;-89
2023/06/14 06:46:39;;;;;;;8.50;7.73;;;33.00;34.80;;;;;;4978960;28;20207;-88
2023/06/14 06:49:06;;;;;;;7.00;6.30;;;;;;;;;;4975294;28;20467;-88
2023/06/14 06:51:32;;;;;;;6.67;6.07;;;;;;;;;;4977829;28;20485;-89
2023/06/14 06:53:58;;;;;;;9.07;7.10;;;;;;;;;;4978641;28;20446;-88
2023/06/14 06:56:24;;;;;;;6.57;5.87;;;;;;;;;;4962400;28;20538;-88
2023/06/14 06:58:50;;;;;;;22.97;7.27;;;;;;;;;;4979249;28;20526;-87
2023/06/14 07:01:16;;;;;;;8.43;6.80;;;33.30;34.30;;;;;;4974889;28;20516;-88
2023/06/14 07:03:43;;;;;;;7.60;6.93;;;;;;;;;;4975277;28;20463;-87
2023/06/14 07:06:09;;;;;;;8.73;7.87;;;;;;;;;;4975490;28;20464;-89
2023/06/14 07:08:35;;;;;;;7.57;6.90;;;;;;;;;;4978911;28;20432;-87
2023/06/14 07:11:02;;;;;;;8.40;7.70;;;;;;;;;;4980714;28;20446;-89
2023/06/14 07:13:28;;;;;;;8.37;7.73;;;;;;;;;;4971213;28;20467;-88
2023/06/14 07:16:04;;;;;;;7.90;7.30;;;35.60;32.90;;;;;;4981789;28;20435;-89
2023/06/14 07:18:30;;;;;;;8.37;7.57;;;;;;;;;;4972738;28;20437;-89
2023/06/14 07:20:57;;;;;;;8.63;7.30;;;;;;;;;;4953462;28;20465;-88
2023/06/14 07:23:23;;;;;;;8.03;7.43;;;;;;;;;;4977864;28;20579;-87
2023/06/14 07:25:49;;;;;;;8.43;7.80;;;;;;;;;;4977458;28;20440;-89
2023/06/14 07:28:17;;;;;;;8.40;7.50;;;34.00;33.70;;;;;;4957305;28;20422;-88
2023/06/14 07:30:43;;;;;;;7.80;7.10;;;;;;;;;;4952357;28;20458;-89
2023/06/14 07:33:11;;;;;;;7.40;6.70;;;;;;;;;;4976067;28;20531;-87
2023/06/14 07:35:37;;;;;;;8.90;8.20;;;;;;;;;;4976866;28;20426;-87
2023/06/14 07:38:03;;;;;;;9.07;8.23;;;;;;;;;;4956757;28;20437;-89
2023/06/14 07:40:29;;;;;;;8.50;7.63;;;;;;;;;;4969962;28;20527;-89
2023/06/14 07:42:55;;;;;;;8.57;7.80;;;;;;;;;;4977390;28;20441;-86
2023/06/14 07:45:21;;;;;;;8.00;7.30;;;;;;;;;;4974972;28;20478;-86
2023/06/14 07:47:47;;;;;;;8.77;7.93;;;;;;;;;;4972824;28;20432;-88
2023/06/14 07:50:13;;;;;;;8.40;7.50;;;;;;;;;;4975795;28;21395;-89
2023/06/14 07:52:39;;;;;;;7.47;6.87;;;;;;;;;;4964828;28;21059;-88
2023/06/14 07:55:05;;;;;;;8.50;7.80;;;;;;;;;;4985430;28;20427;-88
2023/06/14 07:57:31;;;;;;;8.33;7.80;;;;;;;;;;4977170;28;20538;-87
2023/06/14 07:59:57;;;;;;;7.73;7.03;;;;;;;;;;4981196;28;20552;-88
2023/06/14 08:02:23;;;;;;;9.63;8.83;;;;;;;;;;4961762;28;20451;-89
2023/06/14 08:04:49;;;;;;;9.00;8.40;;;;;;;;;;4963906;28;20904;-88
2023/06/14 08:07:15;;;;;;;9.67;8.77;;;;;;;;;;4980077;28;20466;-89
2023/06/14 08:09:41;;;;;;;9.27;8.37;;;;;;;;;;4967743;28;21734;-88
2023/06/14 08:12:09;;;;;;;8.40;7.73;;;34.90;32.10;;;;;;4967549;28;20564;-87
2023/06/14 08:14:35;;;;;;;8.03;7.43;;;;;;;;;;4968011;28;20523;-88
2023/06/14 08:17:01;;;;;;;8.97;8.37;;;;;;;;;;4984033;28;20555;-89
2023/06/14 08:19:27;;;;;;;8.40;7.63;;;;;;;;;;4977347;28;20451;-88
2023/06/14 08:21:55;;;;;;;10.53;8.53;;;;;;;;;;4983877;28;20463;-88
2023/06/14 08:24:26;;;;;;;8.90;8.00;;;34.50;32.50;;;;;;4981554;28;21149;-87
2023/06/14 08:26:53;;;;;;;8.57;7.87;;;34.30;33.40;;;;;;4985928;28;20465;-86
2023/06/14 08:29:19;;;;;;;7.80;7.30;;;34.00;33.40;;;;;;4970134;28;20573;-88
2023/06/14 08:31:45;;;;;;;8.87;8.17;;;;;;;;;;4976067;28;20555;-88
2023/06/14 08:34:11;;;;;;;7.67;6.97;;;;;;;;;;4981358;28;20530;-87
2023/06/14 08:36:40;;;;;;;8.87;8.13;;;34.80;33.00;;;;;;4986030;28;20451;-89
2023/06/14 08:39:08;;;;;;;7.70;7.07;;;;;;;;;;4969562;28;20437;-88
2023/06/14 08:41:34;;;;;;;8.00;7.40;;;;;;;;;;4987631;28;20905;-89
2023/06/14 08:44:00;;;;;;;9.17;8.27;;;;;;;;;;4990486;28;20459;-87
2023/06/14 08:46:27;;;;;;;8.07;7.27;;;34.30;31.60;;;;;;4991351;28;20443;-90
2023/06/14 08:48:56;;;;;;;8.40;7.60;;;33.40;33.20;;;;;;4999775;28;20444;-88
2023/06/14 08:51:26;;;;;;;7.60;7.10;;;33.60;34.90;;;;;;5001270;28;20837;-89
2023/06/14 08:53:57;;;;;;;8.73;7.93;;;33.70;34.30;;;;;;4992349;28;20456;-89
2023/06/14 08:56:30;;;;;;;8.90;8.10;;;32.30;34.20;;;;;;4963637;28;20445;-89
2023/06/14 08:58:57;;;;;;;7.27;6.70;;;32.20;34.70;;;;;;4972257;28;20427;-89
2023/06/14 09:01:24;;;;;;;7.03;6.50;;;32.60;34.90;;;;;;4987149;28;20455;-89
2023/06/14 09:03:50;;;;;;;7.50;6.80;;;33.40;34.40;;;;;;4969321;28;21193;-89
2023/06/14 09:06:18;;;;;;;8.00;7.30;;;;;;;;;;4979589;28;20531;-89
2023/06/14 09:08:46;;;;;;;7.90;7.20;;;33.20;34.00;;;;;;4960526;28;20983;-88
2023/06/14 09:11:12;;;;;;;7.77;7.13;;;;;;;;;;4973474;28;20458;-89
2023/06/14 09:13:39;;;;;;;7.70;7.00;;;33.90;34.40;;;;;;4964598;28;20482;-89
2023/06/14 09:16:05;;;;;;;8.47;7.77;;;32.90;32.80;;;;;;4961821;28;20487;-88
2023/06/14 09:18:44;;;;;;;7.50;6.90;;;32.90;33.30;;;;;;4977881;28;21211;-89
2023/06/14 09:21:10;;;;;;;7.57;6.97;;;;;;;;;;4953215;28;20460;-87
2023/06/14 09:23:41;;;;;;;7.70;6.90;;;31.80;35.70;;;;;;4959348;28;20466;-89
2023/06/14 09:26:08;;;;;;;6.33;5.83;;;32.70;35.20;;;;;;4981163;28;20433;-88
2023/06/14 09:28:34;;;;;;;6.13;5.63;;;;;;;;;;4979138;28;20450;-89
2023/06/14 09:31:01;;;;;;;7.20;6.70;;;33.30;33.80;;;;;;4979618;28;20529;-89
2023/06/14 09:33:27;;;;;;;7.30;6.70;;;;;;;;;;4979580;28;20446;-87
2023/06/14 09:35:54;;;;;;;7.30;6.70;;;33.40;33.90;;;;;;4978114;28;20479;-88
2023/06/14 09:38:20;;;;;;;7.57;6.97;;;33.60;34.00;;;;;;4975317;28;20539;-88
2023/06/14 09:40:46;;;;;;;7.53;7.03;;;;;;;;;;4952480;28;20469;-88
2023/06/14 09:43:13;;;;;;;7.50;6.90;;;;;;;;;;4976553;28;20215;-87
2023/06/14 09:45:39;;;;;;;7.60;6.80;;;34.80;33.50;;;;;;4971412;28;20606;-89
2023/06/14 09:48:07;;;;;;;8.37;7.47;;;34.40;32.00;;;;;;4954084;28;20439;-89
2023/06/14 09:50:33;;;;;;;7.97;7.33;;;;;;;;;;4965382;28;20454;-89
2023/06/14 09:53:05;;;;;;;8.03;7.43;;;32.10;34.50;;;;;;4983435;28;20430;-88
2023/06/14 09:55:31;;;;;;;6.73;6.10;;;;;;;;;;4981002;28;20485;-89
2023/06/14 09:57:59;;;;;;;7.00;6.50;;;33.00;32.70;;;;;;4978990;28;20965;-90
2023/06/14 10:00:26;;;;;;;7.97;7.30;;;34.30;32.10;;;;;;4959588;28;20522;-90
2023/06/14 10:03:00;;;;;;;8.03;7.43;;;34.60;32.00;;;;;;4961055;28;20443;-89
2023/06/14 10:05:28;;;;;;;7.63;7.23;;;32.90;30.50;;;;;;4960845;28;20471;-88
2023/06/14 10:08:00;;;;;;;7.70;7.00;;;32.10;30.00;;;;;;4955963;28;20453;-88
2023/06/14 10:10:26;;;;;;;7.53;6.50;;;;;;;;;;4975845;28;20973;-88
2023/06/14 10:12:52;;;;;;;7.60;6.90;;;30.90;33.30;;;;;;4955733;28;21086;-89
2023/06/14 10:15:35;;;;;;;9.37;6.63;;;31.10;33.40;;;;;;4974605;28;20446;-90
2023/06/14 10:18:06;;;;;;;6.80;6.20;;;30.50;33.70;;;;;;4969536;28;20492;-88
2023/06/14 10:20:46;;;;;;;7.07;6.47;;;29.90;35.30;;;;;;4962073;28;20513;-88
2023/06/14 10:23:18;;;;;;;6.20;5.60;;;29.30;33.90;;;;;;4973540;28;20439;-89
2023/06/14 10:25:44;;;;;;;6.77;6.27;;;;;;;;;;4971661;28;20473;-88
2023/06/14 10:28:19;;;;;;;6.70;6.13;;;29.70;33.40;;;;;;4960519;28;21374;-89
2023/06/14 10:31:05;;;;;;;6.77;6.30;;;30.00;35.30;;;;;;4958143;28;20461;-87
2023/06/14 10:33:31;;;;;;;8.93;6.50;;;30.50;33.60;;;;;;4973654;28;20477;-89
2023/06/14 10:36:10;;;;;;;6.27;5.73;;;30.50;35.10;;;;;;4956985;28;20449;-87
2023/06/14 10:38:37;;;;;;;6.27;5.67;;;29.40;33.50;;;;;;4961787;28;20449;-90
2023/06/14 10:41:05;;;;;;;6.50;5.57;;;28.60;34.90;;;;;;4974834;28;20568;-89
2023/06/14 10:43:30;;;;;;;5.53;5.13;;;28.10;36.30;;;;;;4981119;28;20952;-89
2023/06/14 10:46:16;;;;;;;6.00;5.27;;;27.50;37.30;;;;;;4955667;28;20447;-88
2023/06/14 10:48:44;;;;;;;5.77;5.27;;;27.30;37.90;;;;;;4987285;28;20249;-89
2023/06/14 10:51:21;;;;;;;5.30;4.90;;;27.00;37.20;;;;;;4979840;28;20463;-88
2023/06/14 10:53:51;;;;;;;5.70;5.27;;;26.60;36.70;;;;;;4959161;28;20677;-88
2023/06/14 10:56:46;;;;;;;5.90;5.27;;;26.00;37.60;;;;;;4964247;28;20537;-86
2023/06/14 10:59:12;;;;;;;5.47;4.90;;;25.70;41.10;;;;;;4980966;28;20589;-88
2023/06/14 11:01:45;;;;;;;5.63;5.13;;;25.60;41.10;;;;;;4985280;28;21065;-88
2023/06/14 11:04:11;;;;;;;5.13;4.70;;;25.70;41.70;;;;;;4980802;28;20215;-87
2023/06/14 11:06:49;;;;;;;5.00;4.50;;;26.20;40.60;;;;;;4981068;28;20432;-88
2023/06/14 11:09:55;;;;;;;5.07;4.67;;;26.20;40.70;;;;;;4982966;28;20410;-88
2023/06/14 11:12:22;;;;;;;4.53;4.13;;;25.80;38.50;;;;;;4986021;28;20438;-88
2023/06/14 11:14:48;;;;;;;6.07;5.00;;;25.90;39.50;;;;;;4969790;28;20445;-88
2023/06/14 11:17:13;;;;;;;7.63;4.93;;;25.70;40.90;;;;;;4985033;28;20451;-88
2023/06/14 11:19:39;;;;;;;4.77;4.40;;;25.50;41.20;;;;;;4986780;28;20698;-87
2023/06/14 11:22:05;;;;;;;5.23;4.73;;;25.50;41.80;;;;;;4982831;28;20184;-89
2023/06/14 11:24:33;;;;;;;4.83;4.43;;;25.10;41.50;;;;;;4984400;28;20195;-87
2023/06/14 11:26:59;;;;;;;5.23;4.70;;;;;;;;;;5002628;28;20433;-88
2023/06/14 11:29:25;;;;;;;7.60;4.63;;;;;;;;;;5001671;28;20529;-88
2023/06/14 11:31:51;;;;;;;5.60;5.10;;;25.70;42.50;;;;;;4981109;28;20540;-87
2023/06/14 11:34:17;;;;;;;4.93;4.50;;;26.90;43.20;;;;;;4985478;28;20446;-88
2023/06/14 11:36:43;;;;;;;5.63;5.23;;;25.20;41.80;;;;;;4985587;28;21087;-89
2023/06/14 11:39:09;;;;;;;4.90;4.40;;;;;;;;;;4987553;28;20439;-89
2023/06/14 11:41:40;;;;;;;5.20;4.80;;;25.10;42.00;;;;;;4986828;28;20258;-88
2023/06/14 11:44:06;;;;;;;7.57;4.70;;;25.10;41.10;;;;;;4989418;28;20473;-88
2023/06/14 11:46:32;;;;;;;9.37;4.90;;;25.00;42.20;;;;;;5007691;28;20472;-87
2023/06/14 11:48:58;;;;;;;5.00;4.30;;;;;;;;;;5000848;28;20497;-88
2023/06/14 11:51:24;;;;;;;4.13;3.83;;;25.50;41.20;;;;;;5008455;28;20203;-87
2023/06/14 11:53:50;;;;;;;5.30;4.80;;;25.40;39.70;;;;;;5007169;28;20472;-88
2023/06/14 11:56:16;;;;;;;5.13;4.60;;;;;;;;;;5002372;28;20439;-88
2023/06/14 11:58:45;;;;;;;5.20;4.80;;;26.70;37.50;;;;;;4979747;28;20740;-89
2023/06/14 12:01:16;;;;;;;5.97;5.33;;;27.20;38.00;;;;;;4986237;28;20458;-89
2023/06/14 12:03:48;;;;;;;5.03;4.47;;;27.20;38.50;;;;;;4988066;28;20908;-89
2023/06/14 12:06:14;;;;;;;6.87;5.03;;;27.70;39.40;;;;;;4987753;28;20448;-90
2023/06/14 12:08:40;;;;;;;7.53;5.00;;;;;;;;;;4991019;28;20630;-90
2023/06/14 12:11:10;;;;;;;5.90;5.30;;;27.30;37.50;;;;;;4970189;28;20884;-90
2023/06/14 12:13:38;;;;;;;5.47;4.40;;;26.80;38.20;;;;;;4983569;28;20902;-89
2023/06/14 12:16:05;;;;;;;4.93;4.47;;;;;;;;;;4988495;28;20478;-89
2023/06/14 12:18:35;;;;;;;8.23;4.70;;;26.50;39.70;;;;;;4968914;28;20490;-90
2023/06/14 12:21:02;;;;;;;5.07;4.63;;;26.40;40.60;;;;;;4983138;28;20459;-89
2023/06/14 12:23:48;;;;;;;4.63;4.23;;;25.90;40.20;;;;;;4979999;28;20470;-89
2023/06/14 12:26:18;;;;;;;10.10;5.60;;;25.80;40.50;;;;;;4975812;28;21021;-89
2023/06/14 12:28:45;;;;;;;5.07;4.67;;;25.80;39.90;;;;;;4988498;28;20577;-89
2023/06/14 12:31:13;;;;;;;5.73;5.20;;;27.00;41.00;;;;;;4971901;28;20534;-88
2023/06/14 12:33:40;;;;;;;5.60;5.10;;;26.60;38.10;;;;;;4958908;28;20492;-87
2023/06/14 12:36:10;;;;;;;5.33;4.83;;;27.00;38.30;;;;;;4961604;28;20450;-87
2023/06/14 12:38:36;;;;;;;5.67;5.17;;;27.10;39.20;;;;;;4971652;28;21124;-89
2023/06/14 12:41:03;;;;;;;4.50;4.20;;;27.00;37.80;;;;;;4960450;28;21078;-88
2023/06/14 12:43:28;;;;;;;6.20;4.73;;;27.30;37.90;;;;;;4959857;28;20468;-89
2023/06/14 12:45:55;;;;;;;5.60;5.13;;;27.70;38.30;;;;;;4980499;28;20519;-88
2023/06/14 12:48:21;;;;;;;9.03;4.57;;;28.70;38.90;;;;;;4981817;28;20202;-88
2023/06/14 12:50:47;;;;;;;5.90;5.30;;;26.90;37.70;;;;;;4984766;28;20472;-88
2023/06/14 12:53:13;;;;;;;5.30;4.80;;;26.80;38.80;;;;;;4961728;28;20436;-87
2023/06/14 12:55:39;;;;;;;5.30;4.80;;;26.70;39.70;;;;;;4976168;28;20535;-88
2023/06/14 12:58:05;;;;;;;5.13;4.63;;;27.30;39.70;;;;;;4979305;28;20535;-88
2023/06/14 13:00:30;;;;;;;4.70;4.30;;;27.50;37.90;;;;;;4966806;28;20217;-87
2023/06/14 13:02:57;;;;;;;4.83;4.43;;;27.50;38.40;;;;;;4982316;28;20265;-88
2023/06/14 13:05:23;;;;;;;6.20;5.07;;;;;;;;;;4971736;28;20295;-89
2023/06/14 13:07:49;;;;;;;5.30;4.87;;;;;;;;;;4956458;28;20569;-88
2023/06/14 13:10:15;;;;;;;4.93;4.33;;;;;;;;;;4971312;28;20493;-88
2023/06/14 13:12:40;;;;;;;5.70;5.20;;;27.60;37.60;;;;;;4975698;28;21379;-89
2023/06/14 13:15:07;;;;;;;4.93;4.53;;;27.70;37.40;;;;;;4958288;28;20433;-88
2023/06/14 13:17:38;;;;;;;5.67;5.07;;;;;;;;;;4963338;28;20193;-89
2023/06/14 13:20:04;;;;;;;5.23;4.83;;;;;;;;;;4977877;28;20468;-88
2023/06/14 13:22:30;;;;;;;6.70;6.10;;;;;;;;;;4964913;28;20455;-87
2023/06/14 13:24:55;;;;;;;5.83;5.23;;;27.30;38.30;;;;;;4994711;28;20496;-88
2023/06/14 13:27:21;;;;;;;6.47;4.80;;;;;;;;;;4980819;28;20452;-89
2023/06/14 13:29:47;;;;;;;5.00;4.50;;;;;;;;;;4975429;28;20342;-88